logo
Search for airport 
image banner adimage banner adimage banner ad
image banner ad

LOLY - Oamtc/Ybbsitz

Located in District Amstetten, Austria

ICAO - , IATA -

Data provided by Airmate  

General information

Coordinates: N47°58'9" E14°56'22"
Elevation is 1982 feet MSL.
 
View others Airports in Lower Austria

Operational data

Special qualification required
Current time UTC:
Current local time:
Weather at : LOWL - Linz ( 63 km )
METAR: LOWL 220850Z AUTO 25007KT 210V280 9999 FEW020 BKN024 16/12 Q1012 NOSIG
TAF: TAF LOWL 220515Z 2206/2306 27010KT 9999 BKN030 TX20/2215Z TN12/2303Z PROB40 TEMPO 2212/2217 29015G25KT SHRA BECMG 2218/2220 27005KT PROB30 TEMPO 2302/2306 0800 BCFG BKN008
View NOTAMs / SUP AIP / TFR affecting this airport [VIEW]
Communications frequencies: [VIEW]

Runways:

Airport contact information

Address: District Amstetten Austria

Satellite view of LOLY